Time;durP1;ratioP1;P1;durP2;ratioP2;P2;SDS_P1;SDS_P2;PMS_P1;PMS_P2;Temp;Humidity;BMP_temperature;BMP_pressure;BME280_temperature;BME280_humidity;BME280_pressure;Samples;Min_cycle;Max_cycle;Signal;HPM_P1;HPM_P2
2022/06/09 00:00:00;;;;;;;9.10;3.40;;;;;;;23.24;47.66;100659.13;4987685;28;20033;-89
2022/06/09 00:02:30;;;;;;;8.82;3.80;;;;;;;23.20;47.49;100658.72;4998508;28;20043;-90
2022/06/09 00:04:58;;;;;;;6.07;3.50;;;;;;;22.87;47.56;100611.75;4988348;28;20030;-90
2022/06/09 00:07:26;;;;;;;9.82;3.35;;;;;;;23.19;47.78;100662.41;4987205;28;20048;-90
2022/06/09 00:09:59;;;;;;;12.27;3.47;;;;;;;23.02;47.89;100645.25;4987913;28;20034;-90
2022/06/09 00:12:30;;;;;;;8.00;3.33;;;;;;;23.17;47.77;100667.09;4990224;28;20111;-90
2022/06/09 00:15:03;;;;;;;6.22;3.00;;;;;;;22.38;47.80;100544.94;4985780;28;20039;-90
2022/06/09 00:17:31;;;;;;;6.72;3.20;;;;;;;23.13;47.66;100666.66;5001286;28;20107;-90
2022/06/09 00:20:00;;;;;;;6.85;3.35;;;;;;;23.13;47.50;100669.31;5004055;28;20031;-90
2022/06/09 00:22:26;;;;;;;8.05;3.30;;;;;;;22.47;47.80;100570.28;4990299;28;20041;-91
2022/06/09 00:24:58;;;;;;;7.38;3.13;;;;;;;23.08;47.94;100668.31;4987516;28;20210;-90
2022/06/09 00:27:25;;;;;;;5.80;3.42;;;;;;;22.67;47.66;100608.25;4985816;28;20726;-90
2022/06/09 00:29:54;;;;;;;8.18;3.22;;;;;;;23.08;47.55;100658.50;4988533;28;20035;-90
2022/06/09 00:32:33;;;;;;;8.18;3.60;;;;;;;22.70;47.74;100607.00;4988647;28;20602;-90
2022/06/09 00:35:01;;;;;;;15.00;3.70;;;;;;;23.06;47.68;100671.19;5000906;28;20035;-90
2022/06/09 00:37:33;;;;;;;10.70;3.60;;;;;;;23.04;47.90;100675.06;4989849;28;20030;-90
2022/06/09 00:40:10;;;;;;;8.00;3.25;;;;;;;22.79;47.81;100637.63;4988822;28;20703;-90
2022/06/09 00:42:44;;;;;;;10.20;3.47;;;;;;;23.05;47.81;100676.69;4999627;28;20066;-90
2022/06/09 00:45:34;;;;;;;8.30;3.42;;;;;;;23.03;47.71;100684.06;4986804;28;20502;-90
2022/06/09 00:48:25;;;;;;;8.23;3.78;;;;;;;23.00;47.87;100681.81;4984879;28;20627;-90
2022/06/09 00:50:59;;;;;;;8.68;3.10;;;;;;;22.98;47.97;100682.03;4989809;28;20756;-90
2022/06/09 00:53:32;;;;;;;13.00;3.78;;;;;;;21.92;47.66;100514.66;4984660;28;20480;-90
2022/06/09 00:56:01;;;;;;;10.13;3.08;;;;;;;22.96;48.02;100684.03;4989619;28;20137;-90
2022/06/09 00:58:32;;;;;;;6.78;3.08;;;;;;;22.95;48.16;100690.38;5000182;28;20042;-90
2022/06/09 01:01:10;;;;;;;7.28;3.08;;;;;;;22.95;47.91;100685.06;4988012;28;20037;-90
2022/06/09 01:03:45;;;;;;;7.05;3.35;;;;;;;22.95;48.07;100689.56;4994358;28;20033;-90
2022/06/09 01:06:20;;;;;;;8.50;4.10;;;;;;;22.91;48.09;100689.16;5004561;28;20161;-90
2022/06/09 01:08:54;;;;;;;10.85;3.88;;;;;;;22.92;47.91;100688.13;4989280;28;20037;-90
2022/06/09 01:11:22;;;;;;;8.30;3.20;;;;;;;22.89;47.97;100694.66;4992958;28;20041;-90
2022/06/09 01:13:48;;;;;;;7.07;3.38;;;;;;;22.91;48.10;100697.94;4991349;28;20034;-90
2022/06/09 01:16:37;;;;;;;11.30;3.72;;;;;;;22.87;48.08;100695.88;4990275;28;20063;-89
2022/06/09 01:19:28;;;;;;;11.07;3.45;;;;;;;22.89;47.99;100696.50;4983562;28;20559;-89
2022/06/09 01:22:19;;;;;;;11.15;3.75;;;;;;;22.88;47.93;100697.53;4989923;28;20517;-90
2022/06/09 01:25:15;;;;;;;8.48;3.80;;;;;;;22.86;48.31;100700.38;4991479;28;20436;-90
2022/06/09 01:28:25;;;;;;;8.02;3.60;;;;;;;22.84;48.04;100702.44;5005890;28;20189;-90
2022/06/09 01:31:05;;;;;;;7.80;3.47;;;;;;;22.84;48.22;100710.41;4988420;28;20042;-90
2022/06/09 01:33:56;;;;;;;6.93;3.42;;;;;;;22.84;47.94;100713.06;4988611;28;20038;-90
2022/06/09 01:36:43;;;;;;;9.07;3.80;;;;;;;22.81;48.09;100710.78;4991095;28;20031;-90
2022/06/09 01:39:15;;;;;;;7.78;3.60;;;;;;;22.00;47.97;100593.19;4990510;28;20134;-90
2022/06/09 01:42:01;;;;;;;9.75;3.53;;;;;;;22.84;48.25;100714.88;5000442;28;20054;-89
2022/06/09 01:44:33;;;;;;;8.95;4.20;;;;;;;22.82;47.87;100712.44;5009234;28;20111;-89
2022/06/09 01:47:11;;;;;;;9.18;3.45;;;;;;;22.80;48.33;100714.44;4996130;28;20045;-90
2022/06/09 01:49:45;;;;;;;13.05;4.32;;;;;;;22.40;48.29;100665.75;5009634;28;20041;-89
2022/06/09 01:52:23;;;;;;;11.55;3.88;;;;;;;21.78;48.23;100573.16;5009407;28;20041;-90
2022/06/09 01:55:02;;;;;;;10.35;3.50;;;;;;;22.75;48.31;100721.34;4991752;28;20060;-90
2022/06/09 01:57:37;;;;;;;10.95;3.85;;;;;;;22.58;48.16;100703.16;4994281;28;20571;-89
2022/06/09 02:00:17;;;;;;;8.88;3.45;;;;;;;22.76;48.25;100733.59;5011445;28;20064;-89
2022/06/09 02:02:50;;;;;;;10.38;3.47;;;;;;;22.63;47.93;100712.38;5010261;28;20046;-90
2022/06/09 02:05:28;;;;;;;11.05;4.22;;;;;;;22.77;48.28;100736.06;5005527;28;20054;-90
2022/06/09 02:08:00;;;;;;;8.88;3.88;;;;;;;22.73;48.46;100741.97;4990764;28;20148;-89
2022/06/09 02:10:44;;;;;;;7.45;3.65;;;;;;;22.72;48.21;100737.69;5008044;28;20048;-90
2022/06/09 02:13:36;;;;;;;10.85;3.50;;;;;;;22.74;48.28;100735.66;4990831;28;21168;-89
2022/06/09 02:16:19;;;;;;;7.68;3.80;;;;;;;22.72;48.41;100741.16;5008026;28;20518;-89
2022/06/09 02:18:54;;;;;;;8.18;3.95;;;;;;;22.71;48.18;100746.69;5009009;28;20148;-89
2022/06/09 02:21:30;;;;;;;5.05;3.40;;;;;;;22.71;48.30;100752.81;4992486;28;21049;-89
2022/06/09 02:24:00;;;;;;;10.05;3.60;;;;;;;22.28;48.10;100685.94;5008935;28;20049;-89
2022/06/09 02:26:40;;;;;;;8.95;3.90;;;;;;;22.53;48.24;100724.16;5008261;28;20108;-90
2022/06/09 02:29:09;;;;;;;8.23;3.50;;;;;;;22.68;48.54;100761.16;5007076;28;20064;-90
2022/06/09 02:31:41;;;;;;;12.98;3.67;;;;;;;22.70;48.42;100776.91;5010828;28;20066;-89
2022/06/09 02:34:09;;;;;;;11.30;3.72;;;;;;;21.69;48.27;100606.94;4996663;28;20037;-89
2022/06/09 02:36:47;;;;;;;7.00;3.83;;;;;;;22.39;48.35;100719.84;5008572;28;20068;-90
2022/06/09 02:39:14;;;;;;;9.57;3.67;;;;;;;22.68;48.03;100768.31;4991022;28;20033;-90
2022/06/09 02:41:51;;;;;;;10.27;3.92;;;;;;;22.68;48.18;100766.47;4972423;28;20049;-90
2022/06/09 02:44:22;;;;;;;11.10;3.95;;;;;;;22.67;47.99;100774.66;4967468;28;20141;-90
2022/06/09 02:46:48;;;;;;;8.88;4.18;;;;;;;22.65;48.24;100782.81;4987094;28;20041;-90
2022/06/09 02:49:24;;;;;;;8.65;3.75;;;;;;;22.58;48.33;100760.72;4968464;28;20037;-90
2022/06/09 02:51:58;;;;;;;11.07;3.83;;;;;;;22.64;48.12;100775.06;4971705;28;20054;-90
2022/06/09 02:54:27;;;;;;;9.38;3.78;;;;;;;21.65;48.49;100621.59;4974293;28;20039;-89
2022/06/09 02:56:58;;;;;;;12.48;3.55;;;;;;;22.08;48.42;100691.16;4986286;28;20046;-90
2022/06/09 02:59:25;;;;;;;10.63;3.90;;;;;;;22.63;48.58;100779.53;4969784;28;20093;-90
2022/06/09 03:01:53;;;;;;;6.57;3.60;;;;;;;22.61;48.48;100782.38;4969342;28;20141;-89
2022/06/09 03:04:20;;;;;;;8.60;3.60;;;;;;;22.63;48.39;100784.84;4972659;28;20057;-89
2022/06/09 03:06:55;;;;;;;10.63;3.65;;;;;;;22.35;48.49;100741.66;4967433;28;20728;-89
2022/06/09 03:09:29;;;;;;;12.65;4.38;;;;;;;22.61;48.49;100789.50;4966049;28;20642;-90
2022/06/09 03:11:55;;;;;;;10.40;3.90;;;;;;;22.53;48.47;100781.72;4971661;28;20046;-89
2022/06/09 03:14:24;;;;;;;11.20;3.63;;;;;;;21.92;48.51;100687.00;4981285;28;20500;-89
2022/06/09 03:16:51;;;;;;;15.77;4.03;;;;;;;21.55;48.59;100626.47;4983370;28;20039;-90
2022/06/09 03:19:23;;;;;;;11.85;4.85;;;;;;;21.69;48.51;100660.75;4985473;28;20045;-90
2022/06/09 03:21:56;;;;;;;6.95;3.53;;;;;;;22.09;48.60;100721.16;4962441;28;20190;-89
2022/06/09 03:24:30;;;;;;;8.00;3.92;;;;;;;21.60;48.38;100646.03;4982905;28;20030;-90
2022/06/09 03:27:01;;;;;;;9.95;4.25;;;;;;;22.57;48.39;100802.38;4964828;28;20059;-89
2022/06/09 03:29:28;;;;;;;9.85;3.58;;;;;;;22.35;48.25;100766.34;4987068;28;20495;-89
2022/06/09 03:31:58;;;;;;;11.55;3.75;;;;;;;22.57;48.35;100805.00;4973740;28;20042;-90
2022/06/09 03:34:36;;;;;;;9.07;3.63;;;;;;;22.55;48.34;100806.25;4982692;28;20061;-89
2022/06/09 03:37:07;;;;;;;11.45;4.40;;;;;;;22.55;48.40;100814.19;4982738;28;20039;-89
2022/06/09 03:39:43;;;;;;;8.43;3.88;;;;;;;22.56;48.50;100816.66;4971048;28;20031;-90
2022/06/09 03:42:09;;;;;;;11.68;4.45;;;;;;;22.55;48.64;100817.66;4997804;28;20465;-89
2022/06/09 03:44:41;;;;;;;9.15;4.28;;;;;;;22.52;48.25;100815.41;4979783;28;20073;-89
2022/06/09 03:47:08;;;;;;;8.30;4.20;;;;;;;22.55;48.51;100824.81;5006560;28;20044;-89
2022/06/09 03:49:37;;;;;;;8.85;3.80;;;;;;;22.53;48.38;100824.19;5010328;28;20050;-90
2022/06/09 03:52:11;;;;;;;11.70;4.00;;;;;;;22.54;48.28;100825.84;5011413;28;20033;-90
2022/06/09 03:54:39;;;;;;;11.95;4.30;;;;;;;22.24;48.33;100781.00;5005855;28;20060;-89
2022/06/09 03:57:14;;;;;;;11.23;4.38;;;;;;;22.55;48.43;100827.47;5006278;28;20050;-90
2022/06/09 03:59:50;;;;;;;10.05;3.90;;;;;;;22.52;48.37;100834.00;5005250;28;20026;-90
2022/06/09 04:02:27;;;;;;;10.68;4.13;;;;;;;21.57;48.46;100693.31;4991120;28;20046;-89
2022/06/09 04:04:56;;;;;;;9.25;4.10;;;;;;;22.24;48.35;100807.50;4990227;28;20487;-90
2022/06/09 04:07:28;;;;;;;8.75;3.80;;;;;;;22.51;48.64;100850.13;5006115;28;20042;-90
2022/06/09 04:10:06;;;;;;;10.13;4.15;;;;;;;22.30;48.39;100819.19;5010939;28;20029;-90
2022/06/09 04:12:34;;;;;;;11.60;4.45;;;;;;;22.48;48.71;100853.97;5006965;28;20046;-90
2022/06/09 04:15:01;;;;;;;8.40;4.30;;;;;;;22.48;48.36;100855.81;5008215;28;20046;-90
2022/06/09 04:17:27;;;;;;;11.90;4.32;;;;;;;21.42;48.34;100693.41;5006810;28;20464;-89
2022/06/09 04:19:54;;;;;;;12.52;5.20;;;;;;;22.48;48.68;100856.63;4991208;28;20049;-89
2022/06/09 04:22:23;;;;;;;9.60;4.53;;;;;;;22.51;48.30;100858.06;5008189;28;20392;-89
2022/06/09 04:24:51;;;;;;;15.23;4.43;;;;;;;22.46;48.60;100869.28;4990734;28;20137;-90
2022/06/09 04:27:17;;;;;;;9.45;3.85;;;;;;;22.47;48.81;100862.16;5005588;28;20034;-89
2022/06/09 04:29:44;;;;;;;9.40;4.10;;;;;;;22.09;48.31;100804.19;5008472;28;20645;-89
2022/06/09 04:32:16;;;;;;;11.00;4.00;;;;;;;22.47;48.51;100870.09;5005912;28;20038;-90
2022/06/09 04:34:43;;;;;;;11.95;4.70;;;;;;;22.50;48.76;100867.06;5013574;28;20141;-90
2022/06/09 04:37:15;;;;;;;8.65;3.90;;;;;;;22.47;48.64;100873.56;5012156;28;20037;-90
2022/06/09 04:39:41;;;;;;;7.45;3.67;;;;;;;22.48;48.46;100877.03;5012849;28;20030;-90
2022/06/09 04:42:14;;;;;;;9.32;4.10;;;;;;;22.47;48.44;100881.53;5006320;28;20069;-90
2022/06/09 04:44:46;;;;;;;8.73;4.18;;;;;;;21.70;48.64;100768.41;5007632;28;20706;-90
2022/06/09 04:47:18;;;;;;;10.50;3.75;;;;;;;22.44;48.46;100884.59;4991055;28;20030;-90
2022/06/09 04:49:47;;;;;;;8.65;4.15;;;;;;;22.46;48.52;100885.22;4990346;28;20053;-90
2022/06/09 04:52:16;;;;;;;9.80;4.30;;;;;;;21.93;48.50;100813.22;4993930;28;20023;-90
2022/06/09 04:54:55;;;;;;;13.07;4.17;;;;;;;22.45;48.76;100894.19;5005992;28;20030;-90
2022/06/09 04:57:21;;;;;;;10.20;4.00;;;;;;;22.45;48.65;100899.50;4996648;28;20061;-90
2022/06/09 04:59:47;;;;;;;9.45;3.80;;;;;;;22.45;48.58;100896.03;4975458;28;20062;-90
2022/06/09 05:02:14;;;;;;;8.63;4.07;;;;;;;22.44;48.38;100902.31;4995232;28;20042;-90
2022/06/09 05:04:43;;;;;;;7.68;3.90;;;;;;;22.46;48.42;100916.22;4992412;28;20030;-90
2022/06/09 05:07:10;;;;;;;9.30;4.53;;;;;;;22.45;48.31;100917.25;4995748;28;20102;-90
2022/06/09 05:09:38;;;;;;;8.85;4.15;;;;;;;22.42;48.59;100921.09;4974023;28;20907;-90
2022/06/09 05:12:07;;;;;;;11.27;4.43;;;;;;;22.43;48.62;100922.72;4995820;28;20097;-90
2022/06/09 05:14:33;;;;;;;9.20;3.97;;;;;;;22.45;48.25;100931.34;5009866;28;20154;-91
2022/06/09 05:17:07;;;;;;;8.50;3.97;;;;;;;22.41;48.61;100935.38;4996929;28;20028;-91
2022/06/09 05:19:36;;;;;;;7.32;4.57;;;;;;;22.00;48.42;100866.28;5011072;28;20508;-90
2022/06/09 05:22:02;;;;;;;8.88;4.28;;;;;;;21.35;48.36;100764.88;5010651;28;20041;-90
2022/06/09 05:24:28;;;;;;;7.75;4.10;;;;;;;21.41;48.55;100774.72;4989753;28;20388;-91
2022/06/09 05:26:58;;;;;;;7.80;4.13;;;;;;;21.51;48.43;100795.56;5013989;28;20034;-91
2022/06/09 05:29:27;;;;;;;6.70;4.00;;;;;;;22.42;48.51;100938.84;5009379;28;20030;-90
2022/06/09 05:32:03;;;;;;;;;;;;;;;22.40;48.69;100949.66;4996137;28;20057;-90
2022/06/09 05:34:36;;;;;;;10.87;5.00;;;;;;;22.38;48.58;100959.63;4993014;28;20019;-90
2022/06/09 05:37:07;;;;;;;6.83;4.23;;;;;;;22.41;48.84;100958.44;5009373;28;20072;-90
2022/06/09 05:45:18;;;;;;;7.63;5.13;;;;;;;22.42;48.68;100957.41;5008707;28;20053;-89
2022/06/09 05:47:47;;;;;;;12.55;4.50;;;;;;;21.40;48.32;100809.34;5012388;28;20033;-90
2022/06/09 05:50:16;;;;;;;10.40;4.57;;;;;;;21.70;48.36;100869.09;5010205;28;20026;-89
2022/06/09 05:52:45;;;;;;;10.85;5.10;;;;;;;21.98;48.61;100916.06;5010669;28;20046;-90
2022/06/09 05:55:12;;;;;;;10.20;4.88;;;;;;;22.40;48.82;100975.38;5010163;28;20038;-90
2022/06/09 05:57:46;;;;;;;9.77;4.82;;;;;;;22.40;48.63;100978.84;5007623;28;20465;-90
2022/06/09 06:00:15;;;;;;;9.00;4.70;;;;;;;22.21;48.66;100966.25;5018652;28;20061;-89
2022/06/09 06:02:45;;;;;;;8.00;4.82;;;;;;;22.37;48.64;101000.44;5009858;28;20037;-90
2022/06/09 06:08:01;;;;;;;7.40;4.90;;;;;;;21.47;48.86;100881.75;5014961;28;20036;-91
2022/06/09 06:10:29;;;;;;;;;;;;;;;22.38;48.68;101025.16;5012209;28;20038;-90
2022/06/09 06:13:02;;;;;;;6.45;4.47;;;;;;;21.35;48.52;100876.13;5011906;28;19918;-90
2022/06/09 06:15:31;;;;;;;8.77;5.35;;;;;;;22.41;48.41;101046.81;5010114;28;20037;-91
2022/06/09 06:18:02;;;;;;;9.38;5.30;;;;;;;21.92;48.76;101004.31;5012536;28;20037;-90
2022/06/09 06:20:34;;;;;;;10.07;5.45;;;;;;;22.39;48.81;101055.97;4996158;28;20042;-91
2022/06/09 06:23:06;;;;;;;11.32;5.38;;;;;;;21.36;48.62;100903.41;5012163;28;20106;-90
2022/06/09 06:25:44;;;;;;;8.35;5.05;;;;;;;22.12;48.74;101009.84;4991276;28;20068;-90
2022/06/09 06:28:22;;;;;;;11.25;6.15;;;;;;;22.20;48.48;101021.13;5008319;28;20042;-89
2022/06/09 06:30:53;;;;;;;13.35;5.85;;;;;;;22.39;48.80;101062.09;5008928;28;20052;-90
2022/06/09 06:33:26;;;;;;;11.95;6.28;;;;;;;22.39;48.88;101063.94;5011014;28;20123;-89
2022/06/09 06:35:53;;;;;;;13.40;6.32;;;;;;;22.34;48.54;101055.72;5001702;28;20037;-82
2022/06/09 06:38:19;;;;;;;7.25;5.38;;;;;;;22.26;48.54;101025.69;4983059;28;20906;-82
2022/06/09 06:40:45;;;;;;;10.65;6.03;;;;;;;22.41;48.69;101048.63;4995478;28;20053;-82
2022/06/09 06:43:11;;;;;;;8.32;5.38;;;;;;;22.38;48.55;101049.03;4999542;28;20030;-82
2022/06/09 06:45:37;;;;;;;9.77;6.22;;;;;;;22.45;48.61;101056.03;4999977;28;22010;-82
2022/06/09 06:48:03;;;;;;;9.25;5.90;;;;;;;22.39;48.35;101046.19;4979043;28;20823;-82
2022/06/09 06:50:28;;;;;;;10.63;6.18;;;;;;;22.54;48.37;101062.84;5001403;28;20050;-83
2022/06/09 06:52:54;;;;;;;9.35;5.43;;;;;;;22.51;48.36;101055.28;4980451;28;20049;-83
2022/06/09 06:55:21;;;;;;;14.32;6.13;;;;;;;22.57;48.62;101073.06;4997593;28;20042;-83
2022/06/09 06:57:47;;;;;;;11.38;6.32;;;;;;;22.52;48.32;101075.50;4999283;28;20042;-82
2022/06/09 07:00:16;;;;;;;12.40;6.60;;;;;;;22.60;48.47;101075.34;4996150;28;20053;-82
2022/06/09 07:02:41;;;;;;;11.50;6.63;;;;;;;22.40;48.62;101047.00;5000489;28;20062;-82
2022/06/09 07:05:08;;;;;;;11.60;6.63;;;;;;;22.63;48.52;101094.56;4981368;28;20057;-82
2022/06/09 07:07:34;;;;;;;16.50;6.10;;;;;;;22.64;48.60;101096.22;5003513;28;20490;-82
2022/06/09 07:10:00;;;;;;;10.20;6.30;;;;;;;22.63;48.71;101103.34;4983829;28;20038;-82
2022/06/09 07:12:25;;;;;;;12.52;7.97;;;;;;;22.63;48.44;101106.00;4982442;28;20057;-82
2022/06/09 07:14:51;;;;;;;10.68;7.00;;;;;;;22.64;48.58;101109.47;4982441;28;20053;-83
2022/06/09 07:17:17;;;;;;;9.07;6.22;;;;;;;22.65;48.66;101109.28;5000426;28;20088;-83
2022/06/09 07:19:43;;;;;;;10.93;6.50;;;;;;;22.65;48.42;101119.09;4996332;28;20057;-82
2022/06/09 07:22:08;;;;;;;11.45;7.05;;;;;;;22.68;48.65;101122.19;4996388;28;20743;-82
2022/06/09 07:24:34;;;;;;;10.60;6.82;;;;;;;22.64;48.42;101112.16;4995811;28;20045;-82
2022/06/09 07:26:59;;;;;;;9.25;6.32;;;;;;;22.72;48.53;101118.13;5002769;28;20409;-82
2022/06/09 07:29:26;;;;;;;16.67;6.35;;;;;;;22.66;48.41;101123.38;5003973;28;20057;-83
2022/06/09 07:31:52;;;;;;;13.07;7.18;;;;;;;22.64;48.47;101118.28;4985144;28;20073;-81
2022/06/09 07:34:18;;;;;;;12.02;7.20;;;;;;;22.64;48.37;101120.09;4977570;28;20464;-82
2022/06/09 07:36:44;;;;;;;13.48;7.05;;;;;;;22.61;48.47;101118.63;4998737;28;20726;-82
2022/06/09 07:39:10;;;;;;;9.35;6.18;;;;;;;22.74;48.52;101141.81;4986001;28;20045;-82
2022/06/09 07:41:35;;;;;;;12.57;6.38;;;;;;;22.72;48.60;101138.53;4997164;28;20219;-82
2022/06/09 07:44:04;;;;;;;8.18;5.60;;;;;;;22.76;48.24;101140.59;5002341;28;20045;-82
2022/06/09 07:46:31;;;;;;;12.40;5.95;;;;;;;22.78;48.72;101148.38;4982346;28;20038;-83
2022/06/09 07:48:57;;;;;;;10.32;5.88;;;;;;;22.80;48.19;101147.19;4972579;28;20121;-84
2022/06/09 07:51:24;;;;;;;12.23;6.32;;;;;;;22.64;48.29;101126.22;4999972;28;20496;-84
2022/06/09 07:53:50;;;;;;;12.43;6.55;;;;;;;22.66;48.20;101124.22;4994750;28;20022;-84
2022/06/09 07:56:16;;;;;;;11.88;6.32;;;;;;;;;;4984428;28;20109;-83
2022/06/09 07:58:42;;;;;;;12.35;6.13;;;;;;;22.77;48.23;101154.72;5001705;28;20042;-84
2022/06/09 08:01:07;;;;;;;7.95;5.43;;;;;;;22.75;48.37;101143.47;4999678;28;20038;-83
2022/06/09 08:03:33;;;;;;;8.07;5.47;;;;;;;22.68;48.19;101139.94;4997936;28;20143;-82
2022/06/09 08:05:59;;;;;;;8.82;5.05;;;;;;;22.80;48.16;101155.16;4995534;28;20044;-82
2022/06/09 08:08:24;;;;;;;7.57;5.18;;;;;;;22.85;48.15;101163.41;5003003;28;20037;-84
2022/06/09 08:10:50;;;;;;;8.13;5.15;;;;;;;22.87;48.10;101164.03;5005329;28;20068;-82
2022/06/09 08:13:16;;;;;;;6.38;4.80;;;;;;;22.89;47.97;101174.47;5007412;28;20037;-83
2022/06/09 08:15:44;;;;;;;8.32;5.10;;;;;;;22.96;47.86;101180.63;5005779;28;20515;-83
2022/06/09 08:18:10;;;;;;;7.93;5.22;;;;;;;22.86;47.98;101165.03;5004657;28;20037;-84
2022/06/09 08:20:39;;;;;;;8.40;5.45;;;;;;;22.84;47.77;101152.97;5005861;28;20096;-83
2022/06/09 08:23:08;;;;;;;7.63;4.93;;;;;;;22.94;47.75;101179.19;5003228;28;20033;-83
2022/06/09 08:25:35;;;;;;;7.22;5.28;;;;;;;22.78;47.36;101159.81;5003616;28;20788;-83
2022/06/09 08:28:03;;;;;;;8.93;5.43;;;;;;;22.96;47.49;101185.94;5000202;28;20044;-82
2022/06/09 08:30:29;;;;;;;15.15;5.18;;;;;;;23.00;47.29;101192.53;4999207;28;20061;-83
2022/06/09 08:32:57;;;;;;;8.50;5.13;;;;;;;23.04;47.42;101191.13;4998907;28;20042;-83
2022/06/09 08:35:23;;;;;;;6.32;5.03;;;;;;;23.00;47.51;101189.06;4998311;28;20061;-84
2022/06/09 08:37:50;;;;;;;8.38;4.68;;;;;;;23.10;47.83;101202.81;4997705;28;20431;-83
2022/06/09 08:40:21;;;;;;;8.82;4.47;;;;;;;23.24;47.61;101201.91;4958535;28;20571;-81
2022/06/09 08:43:30;;;;;;;7.07;4.00;;;;;;;23.47;46.74;101199.81;5000692;28;20054;-84
2022/06/09 08:45:58;;;;;;;8.32;4.80;;;;;;;23.69;46.33;101203.25;4981515;28;20054;-82
2022/06/09 08:48:28;;;;;;;7.88;4.40;;;;;;;23.81;45.92;101198.19;5000798;28;20657;-80
2022/06/09 08:51:01;;;;;;;5.65;4.13;;;;;;;23.94;45.72;101203.59;4999328;28;20094;-82
2022/06/09 08:53:37;;;;;;;7.78;4.50;;;;;;;24.14;45.31;101209.00;4999631;28;20060;-82
2022/06/09 08:56:26;;;;;;;5.40;4.32;;;;;;;24.41;44.83;101215.25;4942809;28;20062;-84
2022/06/09 08:59:20;;;;;;;6.93;4.40;;;;;;;24.67;44.18;101222.47;4986486;28;20046;-83
2022/06/09 09:02:00;;;;;;;8.23;3.97;;;;;;;24.78;43.77;101219.22;4956805;28;20439;-82
2022/06/09 09:04:35;;;;;;;6.20;4.35;;;;;;;24.96;43.64;101238.09;4997644;28;20046;-82
2022/06/09 09:07:15;;;;;;;5.63;4.25;;;;;;;24.95;43.50;101224.97;4958786;28;20038;-83
2022/06/09 09:09:41;;;;;;;462.63;274.27;;;;;;;25.00;43.64;101227.88;4998835;28;20404;-84
2022/06/09 09:12:10;;;;;;;5.78;3.80;;;;;;;25.04;43.43;101239.75;4953065;28;20038;-82
2022/06/09 09:14:38;;;;;;;5.15;4.00;;;;;;;25.07;43.45;101238.53;4989162;28;20577;-82
2022/06/09 09:17:26;;;;;;;6.68;3.97;;;;;;;25.13;43.23;101240.38;4990241;28;20380;-82
2022/06/09 09:20:10;;;;;;;4.50;3.47;;;;;;;25.10;43.25;101232.78;5004451;28;20876;-83
2022/06/09 09:22:41;;;;;;;8.40;3.83;;;;;;;25.19;43.45;101243.06;4960531;28;20723;-81
2022/06/09 09:25:15;;;;;;;5.32;3.58;;;;;;;25.19;43.50;101243.06;4997836;28;20041;-81
2022/06/09 09:27:41;;;;;;;5.72;3.85;;;;;;;25.17;43.38;101253.09;4955929;28;20044;-83
2022/06/09 09:30:18;;;;;;;5.95;3.88;;;;;;;25.21;43.26;101253.50;4986048;28;20206;-84
2022/06/09 09:32:50;;;;;;;4.20;3.30;;;;;;;25.24;43.10;101242.44;5004982;28;20096;-84
2022/06/09 09:35:23;;;;;;;4.35;3.53;;;;;;;25.14;43.58;101248.19;4962093;28;20507;-82
2022/06/09 09:37:52;;;;;;;6.28;3.72;;;;;;;25.13;43.38;101254.50;5001248;28;20034;-80
2022/06/09 09:40:24;;;;;;;4.90;3.30;;;;;;;25.06;43.56;101274.19;4962510;28;20046;-83
2022/06/09 09:42:54;;;;;;;6.03;3.30;;;;;;;24.91;43.68;101271.69;5004985;28;20037;-84
2022/06/09 09:45:33;;;;;;;5.53;3.45;;;;;;;24.75;43.77;101259.56;4926152;28;20104;-82
2022/06/09 09:48:03;;;;;;;3.65;2.97;;;;;;;24.85;43.78;101283.97;5001061;28;20049;-85
2022/06/09 09:50:51;;;;;;;4.18;3.05;;;;;;;24.91;43.60;101288.47;4960944;28;21544;-83
2022/06/09 09:53:19;;;;;;;5.88;3.08;;;;;;;24.89;43.75;101295.03;4999240;28;20065;-81
2022/06/09 09:55:53;;;;;;;3.88;3.47;;;;;;;24.89;43.82;101301.19;4965635;28;20049;-80
2022/06/09 09:58:24;;;;;;;4.25;2.85;;;;;;;24.81;43.79;101297.91;5005167;28;20041;-80
2022/06/09 10:01:00;;;;;;;4.63;3.05;;;;;;;24.73;44.33;101293.56;4929354;28;20030;-79
2022/06/09 10:09:13;;;;;;;5.40;2.78;;;;;;;24.61;44.46;101280.03;5001604;28;20116;-80
2022/06/09 10:11:56;;;;;;;4.90;3.10;;;;;;;24.71;44.49;101317.75;4964837;28;20048;-83
2022/06/09 10:14:48;;;;;;;4.35;2.67;;;;;;;24.78;44.38;101331.09;4997804;28;20128;-83
2022/06/09 10:17:35;;;;;;;7.20;2.83;;;;;;;24.79;44.63;101323.94;4958828;28;20578;-85
2022/06/09 10:20:25;;;;;;;4.47;3.50;;;;;;;24.82;44.64;101323.53;4987011;28;20179;-84
2022/06/09 10:22:59;;;;;;;4.70;2.90;;;;;;;24.84;44.65;101335.63;4996896;28;20890;-82
2022/06/09 10:25:49;;;;;;;3.85;2.75;;;;;;;24.86;44.46;101335.41;4963024;28;20053;-83
2022/06/09 10:28:39;;;;;;;7.15;2.92;;;;;;;24.83;44.56;101339.28;4963858;28;20034;-84
2022/06/09 10:31:13;;;;;;;4.55;2.95;;;;;;;24.71;44.69;101338.22;4997297;28;20083;-83
2022/06/09 10:33:52;;;;;;;3.05;2.72;;;;;;;24.69;44.84;101349.09;4955580;28;20042;-83
2022/06/09 10:36:37;;;;;;;3.88;2.40;;;;;;;24.67;44.58;101352.97;4984479;28;20120;-83
2022/06/09 10:39:16;;;;;;;5.05;2.60;;;;;;;24.57;44.83;101332.03;4995189;28;20038;-83
2022/06/09 10:41:47;;;;;;;4.43;2.90;;;;;;;24.66;44.71;101356.66;4958069;28;20046;-83
2022/06/09 10:44:26;;;;;;;3.88;2.83;;;;;;;24.64;44.78;101348.88;4998523;28;20127;-83
2022/06/09 10:56:13;;;;;;;2.90;2.50;;;;;;;24.59;44.69;101364.59;4967363;28;20801;-83
2022/06/09 10:58:53;;;;;;;2.88;2.38;;;;;;;24.51;44.85;101374.59;4987991;28;20030;-80
2022/06/09 11:01:21;;;;;;;;;;;;;;;24.38;44.56;101376.16;4941293;28;22560;-80
2022/06/09 11:03:50;;;;;;;6.70;2.60;;;;;;;24.44;44.52;101377.25;4998976;28;19917;-81
2022/06/09 11:06:46;;;;;;;6.20;2.40;;;;;;;24.55;44.42;101386.50;4963803;28;20551;-81
2022/06/09 11:09:14;;;;;;;5.63;2.45;;;;;;;24.63;44.45;101386.34;4993664;28;20030;-81
2022/06/09 11:11:55;;;;;;;3.97;2.30;;;;;;;24.68;44.37;101391.91;5000541;28;20048;-81
2022/06/09 11:14:39;;;;;;;2.75;2.17;;;;;;;24.74;44.29;101385.75;4959396;28;20057;-81
2022/06/09 11:17:38;;;;;;;4.40;1.95;;;;;;;24.83;44.07;101397.09;4986056;28;20041;-80
2022/06/09 11:20:47;;;;;;;3.67;2.17;;;;;;;24.90;44.05;101396.06;4972430;28;20068;-82
2022/06/09 11:23:28;;;;;;;3.83;2.47;;;;;;;24.91;44.23;101405.72;4945299;28;20125;-82
2022/06/09 11:26:21;;;;;;;4.50;2.42;;;;;;;24.82;44.16;101408.75;4994452;28;21160;-85
2022/06/09 11:29:19;;;;;;;4.10;2.35;;;;;;;24.67;44.05;101390.25;4961351;28;20046;-85
2022/06/09 11:32:13;;;;;;;4.57;2.20;;;;;;;24.77;44.25;101413.84;4999478;28;20038;-85
2022/06/09 11:35:04;;;;;;;2.42;2.10;;;;;;;24.73;44.06;101418.75;4962640;28;20064;-85
2022/06/09 11:37:36;;;;;;;4.43;2.33;;;;;;;24.74;44.32;101420.38;5003333;28;20499;-85
2022/06/09 11:40:11;;;;;;;3.13;1.67;;;;;;;24.74;44.08;101415.06;4947233;28;20056;-85
2022/06/09 11:42:46;;;;;;;4.43;2.45;;;;;;;24.73;44.01;101415.25;5002649;28;20802;-85
2022/06/09 11:45:39;;;;;;;4.45;1.98;;;;;;;24.73;44.13;101432.06;4960776;28;20046;-84
2022/06/09 11:48:12;;;;;;;3.72;2.22;;;;;;;24.68;43.93;101424.66;5002786;28;20115;-85
2022/06/09 11:50:43;;;;;;;4.90;2.40;;;;;;;24.58;44.13;101410.88;4961231;28;20030;-85
2022/06/09 11:53:19;;;;;;;5.35;2.38;;;;;;;24.72;43.96;101441.06;4980679;28;20053;-86
2022/06/09 11:55:57;;;;;;;2.70;2.00;;;;;;;24.62;43.95;101432.63;4947635;28;20120;-86
2022/06/09 11:58:35;;;;;;;3.30;1.70;;;;;;;24.71;43.84;101463.41;4978933;28;20060;-85
2022/06/09 12:01:15;;;;;;;3.25;1.80;;;;;;;24.66;43.77;101449.84;4956118;28;20030;-85
2022/06/09 12:03:43;;;;;;;3.88;2.42;;;;;;;24.65;43.52;101451.69;4997323;28;20369;-84
2022/06/09 12:06:26;;;;;;;4.05;2.13;;;;;;;24.62;43.87;101451.28;4951627;28;20045;-85
2022/06/09 12:09:03;;;;;;;3.28;1.88;;;;;;;24.67;44.18;101454.16;4995322;28;20030;-87
2022/06/09 12:11:51;;;;;;;4.70;2.00;;;;;;;24.67;44.11;101454.16;4947152;28;20052;-85
2022/06/09 12:14:21;;;;;;;4.85;2.17;;;;;;;24.59;43.89;101435.66;4998052;28;20040;-87